createdAt,value
2023-02-10T00:00:37.517Z,25.40
2023-02-10T00:03:06.867Z,25.40
2023-02-10T00:05:36.152Z,25.40
2023-02-10T00:08:05.740Z,25.40
2023-02-10T00:10:34.961Z,25.40
2023-02-10T00:13:04.270Z,25.40
2023-02-10T00:15:33.603Z,25.40
2023-02-10T00:18:02.887Z,25.40
2023-02-10T00:20:32.242Z,25.40
2023-02-10T00:23:01.594Z,25.40
2023-02-10T00:25:30.891Z,25.40
2023-02-10T00:28:00.204Z,25.40
2023-02-10T00:30:29.546Z,25.40
2023-02-10T00:32:59.342Z,25.50
2023-02-10T00:35:28.918Z,25.50
2023-02-10T00:37:58.455Z,25.50
2023-02-10T00:40:27.745Z,25.50
2023-02-10T00:42:57.143Z,25.60
2023-02-10T00:45:26.839Z,25.60
2023-02-10T00:47:56.732Z,25.80
2023-02-10T00:50:26.248Z,25.80
2023-02-10T00:52:55.509Z,25.90
2023-02-10T00:55:24.878Z,26.00
2023-02-10T00:57:54.133Z,26.00
2023-02-10T01:00:23.554Z,26.10
2023-02-10T01:02:52.928Z,26.10
2023-02-10T01:05:22.263Z,26.10
2023-02-10T01:07:51.595Z,26.10
2023-02-10T01:10:21.404Z,26.10
2023-02-10T01:12:50.772Z,26.20
2023-02-10T01:15:20.523Z,26.20
2023-02-10T01:17:49.881Z,26.20
2023-02-10T01:20:19.215Z,26.20
2023-02-10T01:22:48.631Z,26.20
2023-02-10T01:25:18.573Z,26.20
2023-02-10T01:27:48.027Z,26.20
2023-02-10T01:30:17.477Z,26.20
2023-02-10T01:32:46.797Z,26.20
2023-02-10T01:35:16.123Z,26.20
2023-02-10T01:37:45.547Z,26.20
2023-02-10T01:40:15.377Z,26.30
2023-02-10T01:42:45.051Z,26.30
2023-02-10T01:45:50.110Z,26.40
2023-02-10T01:48:21.687Z,26.40
2023-02-10T01:51:09.361Z,26.50
2023-02-10T01:53:38.883Z,26.60
2023-02-10T01:56:14.614Z,26.60
2023-02-10T01:58:48.845Z,26.70
2023-02-10T02:01:20.077Z,26.80
2023-02-10T02:03:52.543Z,26.90
2023-02-10T02:06:21.852Z,27.00
2023-02-10T02:08:56.895Z,27.10
2023-02-10T02:11:57.986Z,27.10
2023-02-10T02:14:51.270Z,27.30
2023-02-10T02:18:13.884Z,27.30
2023-02-10T02:21:03.787Z,27.40
2023-02-10T02:24:09.828Z,27.50
2023-02-10T02:27:12.564Z,27.60
2023-02-10T02:30:14.006Z,27.70
2023-02-10T02:32:54.696Z,27.70
2023-02-10T02:35:33.983Z,27.80
2023-02-10T02:38:03.658Z,27.80
2023-02-10T02:40:33.446Z,27.90
2023-02-10T02:43:02.694Z,27.90
2023-02-10T02:45:57.595Z,28.00
2023-02-10T02:49:07.786Z,28.10
2023-02-10T02:52:11.878Z,28.10
2023-02-10T02:55:41.540Z,28.20
2023-02-10T02:58:21.808Z,28.20
2023-02-10T03:00:54.058Z,28.40
2023-02-10T03:03:23.870Z,28.40
2023-02-10T03:05:52.986Z,28.50
2023-02-10T03:08:22.269Z,28.60
2023-02-10T03:10:51.413Z,28.70
2023-02-10T03:13:20.590Z,28.80
2023-02-10T03:15:50.300Z,28.80
2023-02-10T03:18:20.109Z,28.90
2023-02-10T03:20:49.306Z,29.00
2023-02-10T03:23:18.614Z,29.10
2023-02-10T03:25:50.032Z,29.20
2023-02-10T03:28:19.740Z,29.30
2023-02-10T03:30:51.053Z,29.40
2023-02-10T03:33:20.933Z,29.50
2023-02-10T03:35:54.584Z,29.60
2023-02-10T03:38:24.303Z,29.70
2023-02-10T03:40:54.985Z,29.80
2023-02-10T03:43:24.915Z,29.80
2023-02-10T03:45:54.573Z,29.90
2023-02-10T03:48:24.083Z,30.00
2023-02-10T03:50:53.248Z,30.10
2023-02-10T03:53:22.389Z,30.10
2023-02-10T03:55:51.610Z,30.20
2023-02-10T03:58:21.150Z,30.20
2023-02-10T04:00:50.910Z,30.40
2023-02-10T04:03:21.461Z,30.50
2023-02-10T04:05:50.816Z,30.60
2023-02-10T04:08:20.061Z,30.60
2023-02-10T04:10:49.318Z,30.70
2023-02-10T04:13:18.466Z,30.80
2023-02-10T04:15:47.946Z,30.80
2023-02-10T04:18:19.566Z,30.90
2023-02-10T04:20:48.914Z,31.00
2023-02-10T04:23:18.084Z,31.10
2023-02-10T04:25:47.833Z,31.20
2023-02-10T04:28:17.409Z,31.40
2023-02-10T04:30:46.628Z,31.50
2023-02-10T04:33:16.140Z,31.60
2023-02-10T04:35:46.767Z,31.70
2023-02-10T04:38:16.454Z,31.70
2023-02-10T04:40:46.116Z,31.80
2023-02-10T04:43:16.470Z,31.80
2023-02-10T04:45:47.864Z,31.80
2023-02-10T04:48:17.408Z,31.90
2023-02-10T04:50:46.794Z,32.10
2023-02-10T04:53:15.998Z,32.10
2023-02-10T04:55:45.294Z,32.20
2023-02-10T04:58:14.955Z,32.20
2023-02-10T05:00:44.178Z,32.20
2023-02-10T05:03:13.305Z,32.40
2023-02-10T05:05:42.526Z,32.50
2023-02-10T05:08:11.677Z,32.60
2023-02-10T05:10:40.815Z,32.70
2023-02-10T05:13:10.029Z,32.80
2023-02-10T05:15:39.144Z,32.90
2023-02-10T05:18:08.455Z,33.00
2023-02-10T05:20:38.163Z,33.00
2023-02-10T05:23:07.981Z,33.00
2023-02-10T05:25:37.153Z,33.10
2023-02-10T05:28:06.417Z,33.00
2023-02-10T05:30:35.675Z,33.00
2023-02-10T05:33:04.810Z,33.00
2023-02-10T05:35:33.952Z,33.00
2023-02-10T05:38:05.781Z,33.00
2023-02-10T05:40:35.341Z,33.10
2023-02-10T05:43:04.922Z,33.10
2023-02-10T05:45:35.220Z,33.30
2023-02-10T05:48:04.482Z,33.30
2023-02-10T05:50:33.669Z,33.40
2023-02-10T05:53:02.774Z,33.40
2023-02-10T05:55:31.876Z,33.40
2023-02-10T05:58:01.018Z,33.50
2023-02-10T06:00:30.174Z,33.60
2023-02-10T06:02:59.355Z,33.70
2023-02-10T06:05:28.565Z,33.90
2023-02-10T06:07:57.769Z,34.10
2023-02-10T06:10:26.941Z,34.30
2023-02-10T06:12:56.068Z,34.40
2023-02-10T06:15:25.256Z,34.50
2023-02-10T06:17:54.407Z,34.60
2023-02-10T06:20:25.035Z,34.70
2023-02-10T06:22:55.103Z,34.80
2023-02-10T06:25:24.988Z,35.00
2023-02-10T06:27:54.646Z,35.20
2023-02-10T06:30:26.569Z,35.30
2023-02-10T06:32:57.008Z,35.40
2023-02-10T06:35:26.232Z,35.40
2023-02-10T06:37:55.565Z,35.30
2023-02-10T06:40:24.711Z,35.20
2023-02-10T06:42:53.874Z,35.20
2023-02-10T06:45:23.037Z,35.20
2023-02-10T06:47:52.227Z,35.20
2023-02-10T06:50:21.479Z,35.30
2023-02-10T06:52:51.180Z,35.30
2023-02-10T06:55:20.930Z,35.30
2023-02-10T06:57:50.921Z,35.40
2023-02-10T07:00:20.215Z,35.40
2023-02-10T07:02:50.190Z,35.50
2023-02-10T07:05:19.618Z,35.50
2023-02-10T07:07:49.068Z,35.60
2023-02-10T07:10:18.284Z,35.70
2023-02-10T07:12:51.016Z,35.90
2023-02-10T07:15:20.659Z,36.00
2023-02-10T07:17:49.776Z,36.10
2023-02-10T07:20:22.459Z,36.20
2023-02-10T07:22:53.471Z,36.20
2023-02-10T07:25:22.953Z,36.30
2023-02-10T07:27:53.444Z,36.30
2023-02-10T07:30:22.771Z,36.30
2023-02-10T07:32:52.143Z,36.40
2023-02-10T07:35:23.203Z,36.50
2023-02-10T07:37:52.658Z,36.60
2023-02-10T07:40:21.904Z,36.70
2023-02-10T07:42:51.178Z,36.70
2023-02-10T07:45:21.558Z,36.60
2023-02-10T07:47:50.678Z,36.50
2023-02-10T07:50:20.133Z,36.30
2023-02-10T07:52:50.170Z,36.10
2023-02-10T07:55:19.858Z,35.90
2023-02-10T07:57:49.442Z,35.80
2023-02-10T08:00:19.540Z,35.70
2023-02-10T08:02:48.709Z,35.50
2023-02-10T08:05:18.787Z,35.50
2023-02-10T08:07:48.019Z,35.50
2023-02-10T08:10:17.773Z,35.50
2023-02-10T08:12:48.606Z,35.60
2023-02-10T08:15:19.054Z,35.60
2023-02-10T08:17:48.181Z,35.60
2023-02-10T08:20:17.470Z,35.50
2023-02-10T08:22:46.758Z,35.40
2023-02-10T08:25:15.986Z,35.40
2023-02-10T08:27:45.056Z,35.30
2023-02-10T08:30:14.644Z,35.40
2023-02-10T08:32:43.707Z,35.30
2023-02-10T08:35:13.138Z,35.30
2023-02-10T08:37:42.317Z,35.40
2023-02-10T08:40:12.263Z,35.30
2023-02-10T08:42:41.394Z,35.30
2023-02-10T08:45:11.949Z,35.20
2023-02-10T08:47:41.329Z,35.10
2023-02-10T08:50:10.790Z,35.00
2023-02-10T08:52:40.143Z,34.90
2023-02-10T08:55:09.884Z,34.80
2023-02-10T08:57:39.804Z,34.70
2023-02-10T09:00:11.675Z,34.70
2023-02-10T09:02:41.058Z,34.60
2023-02-10T09:05:11.394Z,34.50
2023-02-10T09:07:41.023Z,34.50
2023-02-10T09:10:13.185Z,34.40
2023-02-10T09:12:44.013Z,34.40
2023-02-10T09:15:13.672Z,34.40
2023-02-10T09:17:43.000Z,34.30
2023-02-10T09:20:13.567Z,34.30
2023-02-10T09:22:42.852Z,34.20
2023-02-10T09:25:12.323Z,34.20
2023-02-10T09:27:41.641Z,34.20
2023-02-10T09:30:11.746Z,34.10
2023-02-10T09:32:41.075Z,34.00
2023-02-10T09:35:10.448Z,34.00
2023-02-10T09:37:39.770Z,34.00
2023-02-10T09:40:11.956Z,34.00
2023-02-10T09:42:49.593Z,34.00
2023-02-10T09:45:34.754Z,34.00
2023-02-10T09:48:33.575Z,34.00
2023-02-10T09:51:37.558Z,34.00
2023-02-10T09:54:14.695Z,34.10
2023-02-10T09:56:44.220Z,34.20
2023-02-10T09:59:25.271Z,34.20
2023-02-10T10:02:02.848Z,34.20
2023-02-10T10:04:34.862Z,34.20
2023-02-10T10:07:40.633Z,34.20
2023-02-10T10:10:42.536Z,34.20
2023-02-10T10:13:27.578Z,34.20
2023-02-10T10:16:25.101Z,34.10
2023-02-10T10:19:23.537Z,34.10
2023-02-10T10:22:41.904Z,34.00
2023-02-10T10:25:17.796Z,34.00
2023-02-10T10:28:26.722Z,34.00
2023-02-10T10:30:56.008Z,34.00
2023-02-10T10:33:51.239Z,33.90
2023-02-10T10:36:32.146Z,33.80
2023-02-10T10:39:40.697Z,33.80
2023-02-10T10:42:18.852Z,33.70
2023-02-10T10:44:51.831Z,33.70
2023-02-10T10:47:47.339Z,33.60
2023-02-10T10:50:21.105Z,33.50
2023-02-10T10:52:55.321Z,33.50
2023-02-10T10:55:42.668Z,33.40
2023-02-10T10:58:48.292Z,33.30
2023-02-10T11:01:19.846Z,33.30
2023-02-10T11:03:49.101Z,33.10
2023-02-10T11:06:20.606Z,33.10
2023-02-10T11:09:04.427Z,33.00
2023-02-10T11:11:43.115Z,33.00
2023-02-10T11:14:24.190Z,32.90
2023-02-10T11:17:04.910Z,32.90
2023-02-10T11:19:48.736Z,32.80
2023-02-10T11:22:23.689Z,32.70
2023-02-10T11:25:21.873Z,32.60
2023-02-10T11:27:56.870Z,32.60
2023-02-10T11:30:42.110Z,32.60
2023-02-10T11:33:25.651Z,32.50
2023-02-10T11:36:15.180Z,32.40
2023-02-10T11:38:44.840Z,32.30
2023-02-10T11:41:15.052Z,32.20
2023-02-10T11:43:49.887Z,32.20
2023-02-10T11:46:31.333Z,32.10
2023-02-10T11:49:09.253Z,32.00
2023-02-10T11:51:38.488Z,32.00
2023-02-10T11:54:12.510Z,31.90
2023-02-10T11:57:41.610Z,31.90
2023-02-10T12:00:24.794Z,31.80
2023-02-10T12:03:15.507Z,31.80
2023-02-10T12:05:56.480Z,31.70
2023-02-10T12:08:43.295Z,31.70
2023-02-10T12:11:22.052Z,31.60
2023-02-10T12:14:35.371Z,31.60
2023-02-10T12:17:25.356Z,31.50
2023-02-10T12:20:32.629Z,31.50
2023-02-10T12:23:26.684Z,31.40
2023-02-10T12:26:26.568Z,31.40
2023-02-10T12:29:25.188Z,31.40
2023-02-10T12:32:19.882Z,31.30
2023-02-10T12:35:13.583Z,31.30
2023-02-10T12:37:58.396Z,31.20
2023-02-10T12:40:51.961Z,31.20
2023-02-10T12:43:49.216Z,31.10
2023-02-10T12:46:55.485Z,31.00
2023-02-10T12:49:34.614Z,30.90
2023-02-10T12:52:20.459Z,30.80
2023-02-10T12:55:06.716Z,30.80
2023-02-10T12:58:03.627Z,30.80
2023-02-10T13:00:53.614Z,30.70
2023-02-10T13:03:37.523Z,30.70
2023-02-10T13:06:46.468Z,30.60
2023-02-10T13:09:43.855Z,30.60
2023-02-10T13:12:27.021Z,30.60
2023-02-10T13:15:08.176Z,30.50
2023-02-10T13:17:49.696Z,30.50
2023-02-10T13:20:33.910Z,30.40
2023-02-10T13:23:36.315Z,30.30
2023-02-10T13:26:28.723Z,30.30
2023-02-10T13:29:20.536Z,30.20
2023-02-10T13:32:30.097Z,30.10
2023-02-10T13:35:03.277Z,30.00
2023-02-10T13:37:46.570Z,30.00
2023-02-10T13:40:30.048Z,29.90
2023-02-10T13:43:07.022Z,29.90
2023-02-10T13:45:40.389Z,29.80
2023-02-10T13:48:40.233Z,29.80
2023-02-10T13:51:12.447Z,29.70
2023-02-10T13:53:44.350Z,29.60
2023-02-10T13:56:22.773Z,29.50
2023-02-10T13:59:06.720Z,29.50
2023-02-10T14:01:50.405Z,29.40
2023-02-10T14:04:22.453Z,29.40
2023-02-10T14:06:54.949Z,29.30
2023-02-10T14:09:33.598Z,29.30
2023-02-10T14:12:29.972Z,29.30
2023-02-10T14:15:10.455Z,29.20
2023-02-10T14:17:41.351Z,29.20
2023-02-10T14:20:26.078Z,29.10
2023-02-10T14:23:01.293Z,29.10
2023-02-10T14:25:41.872Z,29.10
2023-02-10T14:28:26.402Z,29.10
2023-02-10T14:31:02.375Z,29.00
2023-02-10T14:33:37.467Z,29.00
2023-02-10T14:36:20.820Z,29.00
2023-02-10T14:39:03.598Z,28.90
2023-02-10T14:41:36.018Z,28.90
2023-02-10T14:44:06.076Z,28.90
2023-02-10T14:46:38.063Z,28.90
2023-02-10T14:49:17.691Z,29.00
2023-02-10T14:51:48.171Z,29.00
2023-02-10T14:54:27.694Z,29.10
2023-02-10T14:57:00.807Z,29.10
2023-02-10T14:59:34.850Z,29.10
2023-02-10T15:02:24.907Z,29.20
2023-02-10T15:04:59.056Z,29.20
2023-02-10T15:07:46.704Z,29.20
2023-02-10T15:10:41.708Z,29.30
2023-02-10T15:13:12.749Z,29.30
2023-02-10T15:15:53.026Z,29.30
2023-02-10T15:18:28.385Z,29.30
2023-02-10T15:21:07.751Z,29.30
2023-02-10T15:23:36.840Z,29.10
2023-02-10T15:26:22.306Z,28.90
2023-02-10T15:29:13.197Z,28.70
2023-02-10T15:31:47.708Z,28.50
2023-02-10T15:34:28.662Z,28.40
2023-02-10T15:37:07.801Z,28.30
2023-02-10T15:39:43.739Z,28.30
2023-02-10T15:42:17.920Z,28.20
2023-02-10T15:44:47.952Z,28.10
2023-02-10T15:47:29.639Z,28.10
2023-02-10T15:50:01.041Z,28.10
2023-02-10T15:52:36.415Z,28.00
2023-02-10T15:55:20.985Z,28.00
2023-02-10T15:57:50.768Z,27.90
2023-02-10T16:00:30.834Z,27.90
2023-02-10T16:03:00.348Z,27.90
2023-02-10T16:05:31.619Z,27.90
2023-02-10T16:08:08.535Z,27.90
2023-02-10T16:10:38.106Z,27.90
2023-02-10T16:13:07.362Z,27.80
2023-02-10T16:15:36.830Z,27.80
2023-02-10T16:18:06.303Z,27.80
2023-02-10T16:20:36.612Z,27.80
2023-02-10T16:23:06.946Z,27.80
2023-02-10T16:25:36.523Z,27.80
2023-02-10T16:28:06.021Z,27.80
2023-02-10T16:30:37.895Z,27.80
2023-02-10T16:33:07.413Z,27.70
2023-02-10T16:35:36.770Z,27.70
2023-02-10T16:38:06.565Z,27.70
2023-02-10T16:40:41.720Z,27.60
2023-02-10T16:43:11.461Z,27.60
2023-02-10T16:45:41.053Z,27.60
2023-02-10T16:48:14.562Z,27.60
2023-02-10T16:50:45.758Z,27.60
2023-02-10T16:53:15.089Z,27.60
2023-02-10T16:55:45.137Z,27.60
2023-02-10T16:58:19.545Z,27.60
2023-02-10T17:00:48.761Z,27.60
2023-02-10T17:03:18.152Z,27.60
2023-02-10T17:05:48.460Z,27.50
2023-02-10T17:08:18.228Z,27.50
2023-02-10T17:10:47.345Z,27.50
2023-02-10T17:13:16.585Z,27.50
2023-02-10T17:15:46.106Z,27.50
2023-02-10T17:18:17.445Z,27.50
2023-02-10T17:20:46.606Z,27.40
2023-02-10T17:23:16.623Z,27.40
2023-02-10T17:25:45.832Z,27.40
2023-02-10T17:28:18.103Z,27.40
2023-02-10T17:30:47.987Z,27.40
2023-02-10T17:33:50.067Z,27.40
2023-02-10T17:36:22.457Z,27.40
2023-02-10T17:38:52.380Z,27.40
2023-02-10T17:41:27.860Z,27.40
2023-02-10T17:44:01.009Z,27.30
2023-02-10T17:46:30.484Z,27.30
2023-02-10T17:48:59.668Z,27.30
2023-02-10T17:51:28.779Z,27.20
2023-02-10T17:53:57.885Z,27.20
2023-02-10T17:56:27.032Z,27.10
2023-02-10T17:58:56.317Z,27.10
2023-02-10T18:01:29.619Z,27.00
2023-02-10T18:03:59.908Z,27.00
2023-02-10T18:06:31.055Z,27.00
2023-02-10T18:09:01.498Z,27.00
2023-02-10T18:11:32.798Z,27.00
2023-02-10T18:14:02.925Z,27.00
2023-02-10T18:16:33.166Z,26.90
2023-02-10T18:19:02.754Z,26.90
2023-02-10T18:21:31.894Z,26.90
2023-02-10T18:24:03.007Z,26.90
2023-02-10T18:26:32.146Z,26.90
2023-02-10T18:29:01.277Z,26.90
2023-02-10T18:31:30.420Z,26.90
2023-02-10T18:33:59.552Z,26.90
2023-02-10T18:36:28.795Z,26.90
2023-02-10T18:38:57.913Z,26.80
2023-02-10T18:41:27.838Z,26.80
2023-02-10T18:43:57.006Z,26.80
2023-02-10T18:46:26.811Z,26.80
2023-02-10T18:48:57.230Z,26.80
2023-02-10T18:51:26.673Z,26.80
2023-02-10T18:53:55.872Z,26.90
2023-02-10T18:56:25.002Z,26.90
2023-02-10T18:58:54.187Z,26.90
2023-02-10T19:01:27.166Z,26.90
2023-02-10T19:04:02.192Z,26.90
2023-02-10T19:06:33.646Z,26.90
2023-02-10T19:09:02.786Z,26.90
2023-02-10T19:11:31.984Z,26.80
2023-02-10T19:14:01.192Z,26.80
2023-02-10T19:16:30.646Z,26.80
2023-02-10T19:19:03.225Z,26.80
2023-02-10T19:21:32.371Z,26.80
2023-02-10T19:24:01.633Z,26.80
2023-02-10T19:26:30.904Z,26.90
2023-02-10T19:29:00.536Z,26.90
2023-02-10T19:31:29.757Z,26.90
2023-02-10T19:33:59.042Z,26.90
2023-02-10T19:36:28.293Z,26.90
2023-02-10T19:38:57.443Z,26.90
2023-02-10T19:41:30.912Z,26.90
2023-02-10T19:44:00.598Z,26.90
2023-02-10T19:46:29.918Z,26.90
2023-02-10T19:48:59.100Z,26.90
2023-02-10T19:51:28.257Z,26.80
2023-02-10T19:53:57.373Z,26.80
2023-02-10T19:56:26.847Z,26.80
2023-02-10T19:58:57.795Z,26.80
2023-02-10T20:01:27.363Z,26.80
2023-02-10T20:03:58.124Z,26.80
2023-02-10T20:06:35.077Z,26.80
2023-02-10T20:09:04.684Z,26.80
2023-02-10T20:11:34.133Z,26.70
2023-02-10T20:14:03.870Z,26.70
2023-02-10T20:16:33.304Z,26.70
2023-02-10T20:19:02.403Z,26.70
2023-02-10T20:21:31.565Z,26.70
2023-02-10T20:24:00.692Z,26.70
2023-02-10T20:26:30.006Z,26.60
2023-02-10T20:28:59.270Z,26.70
2023-02-10T20:31:28.535Z,26.60
2023-02-10T20:33:57.773Z,26.60
2023-02-10T20:36:26.958Z,26.60
2023-02-10T20:38:56.202Z,26.60
2023-02-10T20:41:25.454Z,26.60
2023-02-10T20:43:54.701Z,26.60
2023-02-10T20:46:26.879Z,26.60
2023-02-10T20:48:56.165Z,26.50
2023-02-10T20:51:25.819Z,26.50
2023-02-10T20:53:54.994Z,26.50
2023-02-10T20:56:24.137Z,26.50
2023-02-10T20:58:53.238Z,26.50
2023-02-10T21:01:22.550Z,26.40
2023-02-10T21:03:51.682Z,26.40
2023-02-10T21:06:27.135Z,26.40
2023-02-10T21:08:59.223Z,26.40
2023-02-10T21:11:31.411Z,26.40
2023-02-10T21:14:00.581Z,26.40
2023-02-10T21:16:30.575Z,26.40
2023-02-10T21:18:59.893Z,26.40
2023-02-10T21:21:29.043Z,26.40
2023-02-10T21:23:58.200Z,26.40
2023-02-10T21:26:28.194Z,26.30
2023-02-10T21:28:57.704Z,26.30
2023-02-10T21:31:26.970Z,26.30
2023-02-10T21:33:56.128Z,26.30
2023-02-10T21:36:29.454Z,26.30
2023-02-10T21:39:02.339Z,26.30
2023-02-10T21:41:43.618Z,26.30
2023-02-10T21:44:30.521Z,26.30
2023-02-10T21:47:08.367Z,26.30
2023-02-10T21:49:38.710Z,26.30
2023-02-10T21:52:10.715Z,26.30
2023-02-10T21:54:41.921Z,26.30
2023-02-10T21:57:15.059Z,26.30
2023-02-10T21:59:44.208Z,26.30
2023-02-10T22:02:16.076Z,26.30
2023-02-10T22:04:45.581Z,26.30
2023-02-10T22:07:14.903Z,26.20
2023-02-10T22:09:44.033Z,26.20
2023-02-10T22:12:13.233Z,26.20
2023-02-10T22:14:42.428Z,26.20
2023-02-10T22:17:11.660Z,26.10
2023-02-10T22:19:40.904Z,26.10
2023-02-10T22:22:10.143Z,26.10
2023-02-10T22:24:39.389Z,26.10
2023-02-10T22:27:08.519Z,26.10
2023-02-10T22:29:37.859Z,26.10
2023-02-10T22:32:07.594Z,26.10
2023-02-10T22:34:36.904Z,26.00
2023-02-10T22:37:06.219Z,26.00
2023-02-10T22:39:35.478Z,26.00
2023-02-10T22:42:04.821Z,26.00
2023-02-10T22:44:34.111Z,26.00
2023-02-10T22:47:03.414Z,26.00
2023-02-10T22:49:32.626Z,26.00
2023-02-10T22:52:01.851Z,26.00
2023-02-10T22:54:31.124Z,25.90
2023-02-10T22:57:00.386Z,25.90
2023-02-10T22:59:29.773Z,25.90
2023-02-10T23:01:59.040Z,25.90
2023-02-10T23:04:28.423Z,25.90
2023-02-10T23:06:57.999Z,25.90
2023-02-10T23:09:27.519Z,25.90
2023-02-10T23:11:56.910Z,25.90
2023-02-10T23:14:26.372Z,25.90
2023-02-10T23:16:58.051Z,25.90
2023-02-10T23:19:30.332Z,25.90
2023-02-10T23:22:00.101Z,25.90
2023-02-10T23:24:29.449Z,26.00
2023-02-10T23:26:58.848Z,26.00
2023-02-10T23:29:28.818Z,26.00
2023-02-10T23:31:58.461Z,26.00
2023-02-10T23:34:27.788Z,26.00
2023-02-10T23:36:56.915Z,26.00
2023-02-10T23:39:26.033Z,26.00
2023-02-10T23:41:55.158Z,26.00
2023-02-10T23:44:24.282Z,26.00
2023-02-10T23:46:53.617Z,26.00
2023-02-10T23:49:22.787Z,26.00
2023-02-10T23:51:51.908Z,26.00
2023-02-10T23:54:21.001Z,26.00
2023-02-10T23:56:50.160Z,26.00
2023-02-10T23:59:19.307Z,26.10
